sensor_id;sensor_type;location;lat;lon;timestamp;temperature;humidity
15983;DHT22;14442;50.196;8.096;2023-03-03T00:00:43;22.90;33.40
15983;DHT22;14442;50.196;8.096;2023-03-03T00:03:14;22.90;33.40
15983;DHT22;14442;50.196;8.096;2023-03-03T00:05:41;22.90;33.50
15983;DHT22;14442;50.196;8.096;2023-03-03T00:08:08;22.90;33.50
15983;DHT22;14442;50.196;8.096;2023-03-03T00:10:36;22.80;33.30
15983;DHT22;14442;50.196;8.096;2023-03-03T00:13:05;22.80;33.20
15983;DHT22;14442;50.196;8.096;2023-03-03T00:15:32;22.90;33.30
15983;DHT22;14442;50.196;8.096;2023-03-03T00:17:58;22.80;33.20
15983;DHT22;14442;50.196;8.096;2023-03-03T00:20:31;22.90;33.20
15983;DHT22;14442;50.196;8.096;2023-03-03T00:23:12;22.80;33.20
15983;DHT22;14442;50.196;8.096;2023-03-03T00:25:42;22.80;33.20
15983;DHT22;14442;50.196;8.096;2023-03-03T00:28:22;22.80;33.00
15983;DHT22;14442;50.196;8.096;2023-03-03T00:30:49;22.80;33.20
15983;DHT22;14442;50.196;8.096;2023-03-03T00:33:24;22.80;33.00
15983;DHT22;14442;50.196;8.096;2023-03-03T00:35:55;22.80;33.00
15983;DHT22;14442;50.196;8.096;2023-03-03T00:38:22;22.70;33.00
15983;DHT22;14442;50.196;8.096;2023-03-03T00:40:49;22.70;33.00
15983;DHT22;14442;50.196;8.096;2023-03-03T00:43:18;22.70;32.90
15983;DHT22;14442;50.196;8.096;2023-03-03T00:45:47;22.70;32.90
15983;DHT22;14442;50.196;8.096;2023-03-03T00:48:22;22.70;32.80
15983;DHT22;14442;50.196;8.096;2023-03-03T00:50:51;22.70;32.90
15983;DHT22;14442;50.196;8.096;2023-03-03T00:53:21;22.70;32.90
15983;DHT22;14442;50.196;8.096;2023-03-03T00:55:49;22.70;32.90
15983;DHT22;14442;50.196;8.096;2023-03-03T00:58:17;22.70;32.90
15983;DHT22;14442;50.196;8.096;2023-03-03T01:00:46;22.60;32.90
15983;DHT22;14442;50.196;8.096;2023-03-03T01:03:14;22.60;32.80
15983;DHT22;14442;50.196;8.096;2023-03-03T01:05:41;22.70;32.80
15983;DHT22;14442;50.196;8.096;2023-03-03T01:08:08;22.60;32.90
15983;DHT22;14442;50.196;8.096;2023-03-03T01:10:41;22.60;32.80
15983;DHT22;14442;50.196;8.096;2023-03-03T01:13:09;22.60;32.90
15983;DHT22;14442;50.196;8.096;2023-03-03T01:15:37;22.60;32.90
15983;DHT22;14442;50.196;8.096;2023-03-03T01:18:04;22.60;33.00
15983;DHT22;14442;50.196;8.096;2023-03-03T01:20:31;22.50;32.90
15983;DHT22;14442;50.196;8.096;2023-03-03T01:22:58;22.50;32.80
15983;DHT22;14442;50.196;8.096;2023-03-03T01:25:24;22.50;32.90
15983;DHT22;14442;50.196;8.096;2023-03-03T01:27:52;22.50;32.90
15983;DHT22;14442;50.196;8.096;2023-03-03T01:30:19;22.50;32.90
15983;DHT22;14442;50.196;8.096;2023-03-03T01:32:46;22.40;32.90
15983;DHT22;14442;50.196;8.096;2023-03-03T01:35:13;22.40;32.90
15983;DHT22;14442;50.196;8.096;2023-03-03T01:37:39;22.40;32.90
15983;DHT22;14442;50.196;8.096;2023-03-03T01:40:11;22.40;32.80
15983;DHT22;14442;50.196;8.096;2023-03-03T01:42:38;22.40;32.80
15983;DHT22;14442;50.196;8.096;2023-03-03T01:45:14;22.40;32.80
15983;DHT22;14442;50.196;8.096;2023-03-03T01:47:43;22.40;32.90
15983;DHT22;14442;50.196;8.096;2023-03-03T01:50:14;22.40;32.90
15983;DHT22;14442;50.196;8.096;2023-03-03T01:52:43;22.40;32.90
15983;DHT22;14442;50.196;8.096;2023-03-03T01:55:14;22.40;32.90
15983;DHT22;14442;50.196;8.096;2023-03-03T01:57:44;22.30;32.80
15983;DHT22;14442;50.196;8.096;2023-03-03T02:00:13;22.40;32.80
15983;DHT22;14442;50.196;8.096;2023-03-03T02:02:41;22.30;32.80
15983;DHT22;14442;50.196;8.096;2023-03-03T02:05:09;22.30;32.80
15983;DHT22;14442;50.196;8.096;2023-03-03T02:07:37;22.30;32.80
15983;DHT22;14442;50.196;8.096;2023-03-03T02:10:06;22.30;32.90
15983;DHT22;14442;50.196;8.096;2023-03-03T02:12:35;22.30;32.80
15983;DHT22;14442;50.196;8.096;2023-03-03T02:15:17;22.30;32.80
15983;DHT22;14442;50.196;8.096;2023-03-03T02:17:45;22.20;32.80
15983;DHT22;14442;50.196;8.096;2023-03-03T02:20:15;22.20;32.80
15983;DHT22;14442;50.196;8.096;2023-03-03T02:22:49;22.20;32.90
15983;DHT22;14442;50.196;8.096;2023-03-03T02:25:23;22.20;32.80
15983;DHT22;14442;50.196;8.096;2023-03-03T02:27:54;22.20;32.90
15983;DHT22;14442;50.196;8.096;2023-03-03T02:30:22;22.10;32.80
15983;DHT22;14442;50.196;8.096;2023-03-03T02:32:49;22.10;32.70
15983;DHT22;14442;50.196;8.096;2023-03-03T02:35:26;22.20;32.90
15983;DHT22;14442;50.196;8.096;2023-03-03T02:37:55;22.10;32.80
15983;DHT22;14442;50.196;8.096;2023-03-03T02:40:25;22.10;32.80
15983;DHT22;14442;50.196;8.096;2023-03-03T02:42:55;22.10;32.80
15983;DHT22;14442;50.196;8.096;2023-03-03T02:45:23;22.00;32.60
15983;DHT22;14442;50.196;8.096;2023-03-03T02:47:50;22.10;32.80
15983;DHT22;14442;50.196;8.096;2023-03-03T02:50:17;22.00;32.80
15983;DHT22;14442;50.196;8.096;2023-03-03T02:52:43;22.00;32.80
15983;DHT22;14442;50.196;8.096;2023-03-03T02:55:10;22.00;32.80
15983;DHT22;14442;50.196;8.096;2023-03-03T02:57:37;21.90;32.80
15983;DHT22;14442;50.196;8.096;2023-03-03T03:00:06;21.90;32.70
15983;DHT22;14442;50.196;8.096;2023-03-03T03:02:33;22.00;32.80
15983;DHT22;14442;50.196;8.096;2023-03-03T03:05:00;21.90;32.90
15983;DHT22;14442;50.196;8.096;2023-03-03T03:07:26;21.90;33.10
15983;DHT22;14442;50.196;8.096;2023-03-03T03:09:53;21.90;32.80
15983;DHT22;14442;50.196;8.096;2023-03-03T03:12:20;21.90;32.80
15983;DHT22;14442;50.196;8.096;2023-03-03T03:14:47;21.80;32.70
15983;DHT22;14442;50.196;8.096;2023-03-03T03:17:15;21.80;32.70
15983;DHT22;14442;50.196;8.096;2023-03-03T03:19:42;21.80;32.70
15983;DHT22;14442;50.196;8.096;2023-03-03T03:22:08;21.80;32.70
15983;DHT22;14442;50.196;8.096;2023-03-03T03:24:35;21.80;32.60
15983;DHT22;14442;50.196;8.096;2023-03-03T03:27:01;21.80;32.70
15983;DHT22;14442;50.196;8.096;2023-03-03T03:29:28;21.80;32.70
15983;DHT22;14442;50.196;8.096;2023-03-03T03:31:55;21.70;32.70
15983;DHT22;14442;50.196;8.096;2023-03-03T03:34:23;21.70;32.60
15983;DHT22;14442;50.196;8.096;2023-03-03T03:36:49;21.70;32.70
15983;DHT22;14442;50.196;8.096;2023-03-03T03:39:16;21.70;32.70
15983;DHT22;14442;50.196;8.096;2023-03-03T03:41:43;21.70;32.60
15983;DHT22;14442;50.196;8.096;2023-03-03T03:44:09;21.70;32.70
15983;DHT22;14442;50.196;8.096;2023-03-03T03:46:36;21.70;32.70
15983;DHT22;14442;50.196;8.096;2023-03-03T03:49:03;21.60;32.60
15983;DHT22;14442;50.196;8.096;2023-03-03T03:51:31;21.70;32.60
15983;DHT22;14442;50.196;8.096;2023-03-03T03:53:59;21.60;32.60
15983;DHT22;14442;50.196;8.096;2023-03-03T03:56:26;21.60;32.60
15983;DHT22;14442;50.196;8.096;2023-03-03T03:58:53;21.60;32.60
15983;DHT22;14442;50.196;8.096;2023-03-03T04:01:20;21.60;32.60
15983;DHT22;14442;50.196;8.096;2023-03-03T04:03:46;21.60;32.60
15983;DHT22;14442;50.196;8.096;2023-03-03T04:06:14;21.60;32.60
15983;DHT22;14442;50.196;8.096;2023-03-03T04:08:42;21.50;32.50
15983;DHT22;14442;50.196;8.096;2023-03-03T04:11:08;21.50;32.50
15983;DHT22;14442;50.196;8.096;2023-03-03T04:13:35;21.50;32.50
15983;DHT22;14442;50.196;8.096;2023-03-03T04:16:02;21.50;32.50
15983;DHT22;14442;50.196;8.096;2023-03-03T04:18:28;21.40;32.50
15983;DHT22;14442;50.196;8.096;2023-03-03T04:20:55;21.50;32.60
15983;DHT22;14442;50.196;8.096;2023-03-03T04:23:22;21.50;32.60
15983;DHT22;14442;50.196;8.096;2023-03-03T04:25:50;21.40;32.50
15983;DHT22;14442;50.196;8.096;2023-03-03T04:28:16;21.40;32.50
15983;DHT22;14442;50.196;8.096;2023-03-03T04:30:43;21.40;32.50
15983;DHT22;14442;50.196;8.096;2023-03-03T04:33:10;21.40;32.40
15983;DHT22;14442;50.196;8.096;2023-03-03T04:35:37;21.30;32.40
15983;DHT22;14442;50.196;8.096;2023-03-03T04:38:03;21.40;32.60
15983;DHT22;14442;50.196;8.096;2023-03-03T04:40:30;21.30;32.40
15983;DHT22;14442;50.196;8.096;2023-03-03T04:42:58;21.30;32.40
15983;DHT22;14442;50.196;8.096;2023-03-03T04:45:25;21.30;32.50
15983;DHT22;14442;50.196;8.096;2023-03-03T04:47:52;21.30;32.40
15983;DHT22;14442;50.196;8.096;2023-03-03T04:50:18;21.30;32.40
15983;DHT22;14442;50.196;8.096;2023-03-03T04:52:45;21.30;32.40
15983;DHT22;14442;50.196;8.096;2023-03-03T04:55:12;21.30;32.40
15983;DHT22;14442;50.196;8.096;2023-03-03T04:57:41;21.30;32.40
15983;DHT22;14442;50.196;8.096;2023-03-03T05:00:10;21.20;32.30
15983;DHT22;14442;50.196;8.096;2023-03-03T05:02:37;21.30;32.40
15983;DHT22;14442;50.196;8.096;2023-03-03T05:05:05;21.20;32.30
15983;DHT22;14442;50.196;8.096;2023-03-03T05:07:32;21.20;32.30
15983;DHT22;14442;50.196;8.096;2023-03-03T05:09:58;21.20;32.40
15983;DHT22;14442;50.196;8.096;2023-03-03T05:12:25;21.20;32.40
15983;DHT22;14442;50.196;8.096;2023-03-03T05:14:52;21.20;32.40
15983;DHT22;14442;50.196;8.096;2023-03-03T05:17:20;21.20;32.30
15983;DHT22;14442;50.196;8.096;2023-03-03T05:19:46;21.10;32.30
15983;DHT22;14442;50.196;8.096;2023-03-03T05:22:13;21.10;32.30
15983;DHT22;14442;50.196;8.096;2023-03-03T05:24:40;21.10;32.30
15983;DHT22;14442;50.196;8.096;2023-03-03T05:27:08;21.10;32.20
15983;DHT22;14442;50.196;8.096;2023-03-03T05:29:36;21.10;32.30
15983;DHT22;14442;50.196;8.096;2023-03-03T05:32:02;21.10;32.30
15983;DHT22;14442;50.196;8.096;2023-03-03T05:34:30;21.10;32.30
15983;DHT22;14442;50.196;8.096;2023-03-03T05:36:57;21.00;32.30
15983;DHT22;14442;50.196;8.096;2023-03-03T05:39:24;21.00;32.20
15983;DHT22;14442;50.196;8.096;2023-03-03T05:41:50;21.00;32.30
15983;DHT22;14442;50.196;8.096;2023-03-03T05:44:17;21.00;32.30
15983;DHT22;14442;50.196;8.096;2023-03-03T05:46:44;21.00;32.30
15983;DHT22;14442;50.196;8.096;2023-03-03T05:49:10;21.00;32.20
15983;DHT22;14442;50.196;8.096;2023-03-03T05:51:38;20.90;32.20
15983;DHT22;14442;50.196;8.096;2023-03-03T05:54:05;21.00;32.20
15983;DHT22;14442;50.196;8.096;2023-03-03T05:56:32;20.90;32.10
15983;DHT22;14442;50.196;8.096;2023-03-03T05:58:58;20.90;32.10
15983;DHT22;14442;50.196;8.096;2023-03-03T06:01:25;20.90;32.10
15983;DHT22;14442;50.196;8.096;2023-03-03T06:03:53;20.90;32.20
15983;DHT22;14442;50.196;8.096;2023-03-03T06:06:20;20.90;32.10
15983;DHT22;14442;50.196;8.096;2023-03-03T06:08:48;20.90;32.20
15983;DHT22;14442;50.196;8.096;2023-03-03T06:11:14;20.90;32.20
15983;DHT22;14442;50.196;8.096;2023-03-03T06:13:43;20.80;32.20
15983;DHT22;14442;50.196;8.096;2023-03-03T06:16:10;20.80;32.10
15983;DHT22;14442;50.196;8.096;2023-03-03T06:18:37;20.80;32.20
15983;DHT22;14442;50.196;8.096;2023-03-03T06:21:03;20.80;32.10
15983;DHT22;14442;50.196;8.096;2023-03-03T06:23:30;20.80;32.10
15983;DHT22;14442;50.196;8.096;2023-03-03T06:25:58;20.80;32.20
15983;DHT22;14442;50.196;8.096;2023-03-03T06:28:25;20.80;32.20
15983;DHT22;14442;50.196;8.096;2023-03-03T06:30:52;20.70;32.10
15983;DHT22;14442;50.196;8.096;2023-03-03T06:33:20;20.70;32.20
15983;DHT22;14442;50.196;8.096;2023-03-03T06:35:48;20.70;32.10
15983;DHT22;14442;50.196;8.096;2023-03-03T06:38:15;20.70;32.10
15983;DHT22;14442;50.196;8.096;2023-03-03T06:40:42;20.70;32.20
15983;DHT22;14442;50.196;8.096;2023-03-03T06:43:10;20.60;32.00
15983;DHT22;14442;50.196;8.096;2023-03-03T06:45:36;20.70;32.20
15983;DHT22;14442;50.196;8.096;2023-03-03T06:48:03;20.70;32.10
15983;DHT22;14442;50.196;8.096;2023-03-03T06:50:30;20.70;32.20
15983;DHT22;14442;50.196;8.096;2023-03-03T06:53:01;20.60;32.10
15983;DHT22;14442;50.196;8.096;2023-03-03T06:55:32;20.60;32.20
15983;DHT22;14442;50.196;8.096;2023-03-03T06:58:00;20.50;32.30
15983;DHT22;14442;50.196;8.096;2023-03-03T07:00:29;20.40;32.30
15983;DHT22;14442;50.196;8.096;2023-03-03T07:02:58;20.40;32.50
15983;DHT22;14442;50.196;8.096;2023-03-03T07:05:26;20.40;32.60
15983;DHT22;14442;50.196;8.096;2023-03-03T07:07:53;20.40;32.50
15983;DHT22;14442;50.196;8.096;2023-03-03T07:10:23;20.50;32.60
15983;DHT22;14442;50.196;8.096;2023-03-03T07:12:50;20.60;32.80
15983;DHT22;14442;50.196;8.096;2023-03-03T07:15:19;20.60;32.80
15983;DHT22;14442;50.196;8.096;2023-03-03T07:17:50;20.60;32.70
15983;DHT22;14442;50.196;8.096;2023-03-03T07:20:20;20.50;32.60
15983;DHT22;14442;50.196;8.096;2023-03-03T07:22:48;20.60;32.90
15983;DHT22;14442;50.196;8.096;2023-03-03T07:25:29;20.50;32.80
15983;DHT22;14442;50.196;8.096;2023-03-03T07:27:59;20.60;32.80
15983;DHT22;14442;50.196;8.096;2023-03-03T07:30:28;20.60;32.90
15983;DHT22;14442;50.196;8.096;2023-03-03T07:32:57;20.60;33.00
15983;DHT22;14442;50.196;8.096;2023-03-03T07:35:36;20.70;33.10
15983;DHT22;14442;50.196;8.096;2023-03-03T07:38:16;20.60;32.90
15983;DHT22;14442;50.196;8.096;2023-03-03T07:40:48;20.70;32.90
15983;DHT22;14442;50.196;8.096;2023-03-03T07:43:33;20.70;33.00
15983;DHT22;14442;50.196;8.096;2023-03-03T07:46:13;20.80;33.10
15983;DHT22;14442;50.196;8.096;2023-03-03T07:48:43;20.90;33.00
15983;DHT22;14442;50.196;8.096;2023-03-03T07:51:13;21.10;33.00
15983;DHT22;14442;50.196;8.096;2023-03-03T07:53:41;21.20;33.20
15983;DHT22;14442;50.196;8.096;2023-03-03T07:56:16;21.20;33.00
15983;DHT22;14442;50.196;8.096;2023-03-03T07:58:45;21.20;32.60
15983;DHT22;14442;50.196;8.096;2023-03-03T08:01:34;21.30;33.20
15983;DHT22;14442;50.196;8.096;2023-03-03T08:04:16;21.40;32.80
15983;DHT22;14442;50.196;8.096;2023-03-03T08:06:48;21.60;33.10
15983;DHT22;14442;50.196;8.096;2023-03-03T08:09:43;21.80;33.40
15983;DHT22;14442;50.196;8.096;2023-03-03T08:12:35;21.90;33.40
15983;DHT22;14442;50.196;8.096;2023-03-03T08:15:19;21.90;33.30
15983;DHT22;14442;50.196;8.096;2023-03-03T08:17:48;22.00;33.30
15983;DHT22;14442;50.196;8.096;2023-03-03T08:20:41;22.00;33.30
15983;DHT22;14442;50.196;8.096;2023-03-03T08:23:09;22.10;33.10
15983;DHT22;14442;50.196;8.096;2023-03-03T08:25:36;22.20;33.20
15983;DHT22;14442;50.196;8.096;2023-03-03T08:28:03;22.30;33.30
15983;DHT22;14442;50.196;8.096;2023-03-03T08:30:30;22.30;33.30
15983;DHT22;14442;50.196;8.096;2023-03-03T08:32:57;22.30;33.20
15983;DHT22;14442;50.196;8.096;2023-03-03T08:35:24;22.30;33.30
15983;DHT22;14442;50.196;8.096;2023-03-03T08:37:52;22.40;33.20
15983;DHT22;14442;50.196;8.096;2023-03-03T08:40:19;22.40;33.20
15983;DHT22;14442;50.196;8.096;2023-03-03T08:42:45;22.50;33.10
15983;DHT22;14442;50.196;8.096;2023-03-03T08:45:12;22.40;36.10
15983;DHT22;14442;50.196;8.096;2023-03-03T08:47:39;22.40;35.30
15983;DHT22;14442;50.196;8.096;2023-03-03T08:50:08;22.40;34.90
15983;DHT22;14442;50.196;8.096;2023-03-03T08:52:34;22.50;35.80
15983;DHT22;14442;50.196;8.096;2023-03-03T08:55:03;22.50;36.10
15983;DHT22;14442;50.196;8.096;2023-03-03T08:57:29;22.50;35.10
15983;DHT22;14442;50.196;8.096;2023-03-03T08:59:56;22.50;34.50
15983;DHT22;14442;50.196;8.096;2023-03-03T09:02:23;22.60;35.30
15983;DHT22;14442;50.196;8.096;2023-03-03T09:04:50;22.60;35.70
15983;DHT22;14442;50.196;8.096;2023-03-03T09:07:17;22.60;35.50
15983;DHT22;14442;50.196;8.096;2023-03-03T09:09:43;22.60;35.60
15983;DHT22;14442;50.196;8.096;2023-03-03T09:12:15;22.60;35.10
15983;DHT22;14442;50.196;8.096;2023-03-03T09:14:42;22.70;35.70
15983;DHT22;14442;50.196;8.096;2023-03-03T09:17:22;22.60;35.40
15983;DHT22;14442;50.196;8.096;2023-03-03T09:19:49;22.70;35.30
15983;DHT22;14442;50.196;8.096;2023-03-03T09:22:18;22.70;35.30
15983;DHT22;14442;50.196;8.096;2023-03-03T09:24:46;22.70;35.40
15983;DHT22;14442;50.196;8.096;2023-03-03T09:27:21;22.70;35.30
15983;DHT22;14442;50.196;8.096;2023-03-03T09:29:50;22.70;35.10
15983;DHT22;14442;50.196;8.096;2023-03-03T09:32:26;22.70;34.80
15983;DHT22;14442;50.196;8.096;2023-03-03T09:34:55;22.80;36.00
15983;DHT22;14442;50.196;8.096;2023-03-03T09:37:23;22.80;35.00
15983;DHT22;14442;50.196;8.096;2023-03-03T09:39:53;22.70;34.80
15983;DHT22;14442;50.196;8.096;2023-03-03T09:45:37;22.60;35.00
15983;DHT22;14442;50.196;8.096;2023-03-03T09:48:28;22.60;34.50
15983;DHT22;14442;50.196;8.096;2023-03-03T09:51:09;22.70;34.30
15983;DHT22;14442;50.196;8.096;2023-03-03T09:53:53;22.60;34.50
15983;DHT22;14442;50.196;8.096;2023-03-03T09:56:25;22.60;34.60
15983;DHT22;14442;50.196;8.096;2023-03-03T09:59:05;22.60;34.00
15983;DHT22;14442;50.196;8.096;2023-03-03T10:01:46;22.60;34.30
15983;DHT22;14442;50.196;8.096;2023-03-03T10:04:22;22.60;34.40
15983;DHT22;14442;50.196;8.096;2023-03-03T10:06:55;22.60;34.80
15983;DHT22;14442;50.196;8.096;2023-03-03T10:09:38;22.60;35.40
15983;DHT22;14442;50.196;8.096;2023-03-03T10:12:11;22.60;34.90
15983;DHT22;14442;50.196;8.096;2023-03-03T10:15:03;22.60;34.80
15983;DHT22;14442;50.196;8.096;2023-03-03T10:17:48;22.60;34.60
15983;DHT22;14442;50.196;8.096;2023-03-03T10:20:32;22.60;35.10
15983;DHT22;14442;50.196;8.096;2023-03-03T10:23:05;22.60;34.70
15983;DHT22;14442;50.196;8.096;2023-03-03T10:25:38;22.60;34.70
15983;DHT22;14442;50.196;8.096;2023-03-03T10:28:29;22.60;34.90
15983;DHT22;14442;50.196;8.096;2023-03-03T10:31:06;22.60;34.70
15983;DHT22;14442;50.196;8.096;2023-03-03T10:33:45;22.60;34.60
15983;DHT22;14442;50.196;8.096;2023-03-03T10:36:27;22.60;34.50
15983;DHT22;14442;50.196;8.096;2023-03-03T10:39:04;22.60;34.40
15983;DHT22;14442;50.196;8.096;2023-03-03T10:41:45;22.60;34.70
15983;DHT22;14442;50.196;8.096;2023-03-03T10:47:42;22.50;34.30
15983;DHT22;14442;50.196;8.096;2023-03-03T10:50:18;22.50;34.40
15983;DHT22;14442;50.196;8.096;2023-03-03T10:52:49;22.50;34.30
15983;DHT22;14442;50.196;8.096;2023-03-03T10:55:28;22.50;34.10
15983;DHT22;14442;50.196;8.096;2023-03-03T10:58:16;22.50;34.40
15983;DHT22;14442;50.196;8.096;2023-03-03T11:00:50;22.50;34.20
15983;DHT22;14442;50.196;8.096;2023-03-03T11:03:47;22.60;34.20
15983;DHT22;14442;50.196;8.096;2023-03-03T11:06:25;22.50;34.10
15983;DHT22;14442;50.196;8.096;2023-03-03T11:08:58;22.50;34.10
15983;DHT22;14442;50.196;8.096;2023-03-03T11:11:35;22.50;34.20
15983;DHT22;14442;50.196;8.096;2023-03-03T11:14:05;22.50;34.00
15983;DHT22;14442;50.196;8.096;2023-03-03T11:16:46;22.50;34.10
15983;DHT22;14442;50.196;8.096;2023-03-03T11:19:35;22.50;33.70
15983;DHT22;14442;50.196;8.096;2023-03-03T11:22:14;22.50;33.40
15983;DHT22;14442;50.196;8.096;2023-03-03T11:24:53;22.40;33.50
15983;DHT22;14442;50.196;8.096;2023-03-03T11:27:49;22.40;33.70
15983;DHT22;14442;50.196;8.096;2023-03-03T11:30:30;22.40;33.40
15983;DHT22;14442;50.196;8.096;2023-03-03T11:33:02;22.40;33.10
15983;DHT22;14442;50.196;8.096;2023-03-03T11:35:38;22.40;33.00
15983;DHT22;14442;50.196;8.096;2023-03-03T11:38:22;22.40;32.70
15983;DHT22;14442;50.196;8.096;2023-03-03T11:40:53;22.40;32.70
15983;DHT22;14442;50.196;8.096;2023-03-03T11:43:26;22.40;32.60
15983;DHT22;14442;50.196;8.096;2023-03-03T11:45:55;22.40;32.30
15983;DHT22;14442;50.196;8.096;2023-03-03T11:48:29;22.60;32.20
15983;DHT22;14442;50.196;8.096;2023-03-03T11:51:04;22.80;32.10
15983;DHT22;14442;50.196;8.096;2023-03-03T11:53:44;23.00;32.00
15983;DHT22;14442;50.196;8.096;2023-03-03T11:56:22;23.10;31.90
15983;DHT22;14442;50.196;8.096;2023-03-03T11:59:04;23.20;31.80
15983;DHT22;14442;50.196;8.096;2023-03-03T12:01:37;23.30;31.80
15983;DHT22;14442;50.196;8.096;2023-03-03T12:04:10;23.30;31.70
15983;DHT22;14442;50.196;8.096;2023-03-03T12:06:55;23.40;32.40
15983;DHT22;14442;50.196;8.096;2023-03-03T12:09:34;23.40;32.30
15983;DHT22;14442;50.196;8.096;2023-03-03T12:12:06;23.50;31.70
15983;DHT22;14442;50.196;8.096;2023-03-03T12:14:49;23.50;31.70
15983;DHT22;14442;50.196;8.096;2023-03-03T12:17:40;23.60;31.70
15983;DHT22;14442;50.196;8.096;2023-03-03T12:20:15;23.70;31.70
15983;DHT22;14442;50.196;8.096;2023-03-03T12:22:51;23.70;31.60
15983;DHT22;14442;50.196;8.096;2023-03-03T12:25:24;23.70;31.60
15983;DHT22;14442;50.196;8.096;2023-03-03T12:27:57;23.70;31.70
15983;DHT22;14442;50.196;8.096;2023-03-03T12:30:40;23.80;31.60
15983;DHT22;14442;50.196;8.096;2023-03-03T12:33:20;23.70;31.50
15983;DHT22;14442;50.196;8.096;2023-03-03T12:35:57;23.80;31.60
15983;DHT22;14442;50.196;8.096;2023-03-03T12:38:37;23.90;31.60
15983;DHT22;14442;50.196;8.096;2023-03-03T12:41:11;23.80;31.50
15983;DHT22;14442;50.196;8.096;2023-03-03T12:43:52;23.90;31.50
15983;DHT22;14442;50.196;8.096;2023-03-03T12:46:24;23.90;31.50
15983;DHT22;14442;50.196;8.096;2023-03-03T12:48:54;23.90;31.50
15983;DHT22;14442;50.196;8.096;2023-03-03T12:51:32;24.00;31.60
15983;DHT22;14442;50.196;8.096;2023-03-03T12:54:15;24.00;31.50
15983;DHT22;14442;50.196;8.096;2023-03-03T12:56:48;24.00;31.50
15983;DHT22;14442;50.196;8.096;2023-03-03T12:59:20;24.00;31.50
15983;DHT22;14442;50.196;8.096;2023-03-03T13:02:13;24.00;31.40
15983;DHT22;14442;50.196;8.096;2023-03-03T13:04:50;24.10;31.50
15983;DHT22;14442;50.196;8.096;2023-03-03T13:07:23;24.10;31.50
15983;DHT22;14442;50.196;8.096;2023-03-03T13:10:03;24.20;31.50
15983;DHT22;14442;50.196;8.096;2023-03-03T13:12:38;24.10;31.40
15983;DHT22;14442;50.196;8.096;2023-03-03T13:15:13;23.90;31.20
15983;DHT22;14442;50.196;8.096;2023-03-03T13:17:48;23.70;31.10
15983;DHT22;14442;50.196;8.096;2023-03-03T13:20:21;23.70;30.90
15983;DHT22;14442;50.196;8.096;2023-03-03T13:22:54;23.60;30.80
15983;DHT22;14442;50.196;8.096;2023-03-03T13:25:39;23.60;30.70
15983;DHT22;14442;50.196;8.096;2023-03-03T13:28:13;23.60;30.70
15983;DHT22;14442;50.196;8.096;2023-03-03T13:30:47;23.60;30.60
15983;DHT22;14442;50.196;8.096;2023-03-03T13:33:17;23.60;30.60
15983;DHT22;14442;50.196;8.096;2023-03-03T13:35:47;23.60;30.60
15983;DHT22;14442;50.196;8.096;2023-03-03T13:38:19;23.60;30.50
15983;DHT22;14442;50.196;8.096;2023-03-03T13:40:50;23.60;30.40
15983;DHT22;14442;50.196;8.096;2023-03-03T13:43:22;23.60;30.50
15983;DHT22;14442;50.196;8.096;2023-03-03T13:46:03;23.60;30.40
15983;DHT22;14442;50.196;8.096;2023-03-03T13:48:47;23.60;30.30
15983;DHT22;14442;50.196;8.096;2023-03-03T13:51:23;23.60;30.30
15983;DHT22;14442;50.196;8.096;2023-03-03T13:53:57;23.60;30.40
15983;DHT22;14442;50.196;8.096;2023-03-03T13:56:52;23.60;31.10
15983;DHT22;14442;50.196;8.096;2023-03-03T13:59:25;23.60;30.30
15983;DHT22;14442;50.196;8.096;2023-03-03T14:02:00;23.60;30.30
15983;DHT22;14442;50.196;8.096;2023-03-03T14:04:39;23.60;30.30
15983;DHT22;14442;50.196;8.096;2023-03-03T14:07:16;23.60;30.30
15983;DHT22;14442;50.196;8.096;2023-03-03T14:09:58;23.60;30.30
15983;DHT22;14442;50.196;8.096;2023-03-03T14:12:36;23.60;30.30
15983;DHT22;14442;50.196;8.096;2023-03-03T14:15:14;23.60;30.20
15983;DHT22;14442;50.196;8.096;2023-03-03T14:17:58;23.50;30.10
15983;DHT22;14442;50.196;8.096;2023-03-03T14:20:29;23.50;30.00
15983;DHT22;14442;50.196;8.096;2023-03-03T14:22:59;23.50;30.00
15983;DHT22;14442;50.196;8.096;2023-03-03T14:25:55;23.60;30.00
15983;DHT22;14442;50.196;8.096;2023-03-03T14:28:26;23.60;30.00
15983;DHT22;14442;50.196;8.096;2023-03-03T14:30:55;23.60;30.00
15983;DHT22;14442;50.196;8.096;2023-03-03T14:33:27;23.60;30.00
15983;DHT22;14442;50.196;8.096;2023-03-03T14:36:04;23.60;30.00
15983;DHT22;14442;50.196;8.096;2023-03-03T14:38:43;23.60;30.00
15983;DHT22;14442;50.196;8.096;2023-03-03T14:41:15;23.60;30.10
15983;DHT22;14442;50.196;8.096;2023-03-03T14:43:45;23.60;30.10
15983;DHT22;14442;50.196;8.096;2023-03-03T14:46:30;23.60;30.10
15983;DHT22;14442;50.196;8.096;2023-03-03T14:48:59;23.50;30.00
15983;DHT22;14442;50.196;8.096;2023-03-03T14:51:30;23.50;30.00
15983;DHT22;14442;50.196;8.096;2023-03-03T14:53:58;23.50;30.00
15983;DHT22;14442;50.196;8.096;2023-03-03T14:56:27;23.50;30.00
15983;DHT22;14442;50.196;8.096;2023-03-03T14:59:15;23.50;30.00
15983;DHT22;14442;50.196;8.096;2023-03-03T15:01:42;23.50;30.00
15983;DHT22;14442;50.196;8.096;2023-03-03T15:04:25;23.50;30.00
15983;DHT22;14442;50.196;8.096;2023-03-03T15:06:53;23.50;30.00
15983;DHT22;14442;50.196;8.096;2023-03-03T15:09:29;23.50;30.00
15983;DHT22;14442;50.196;8.096;2023-03-03T15:12:01;23.50;30.00
15983;DHT22;14442;50.196;8.096;2023-03-03T15:14:31;23.50;30.00
15983;DHT22;14442;50.196;8.096;2023-03-03T15:17:23;23.50;30.00
15983;DHT22;14442;50.196;8.096;2023-03-03T15:20:12;23.40;30.00
15983;DHT22;14442;50.196;8.096;2023-03-03T15:22:49;23.50;30.10
15983;DHT22;14442;50.196;8.096;2023-03-03T15:25:23;23.40;30.00
15983;DHT22;14442;50.196;8.096;2023-03-03T15:28:06;23.30;30.00
15983;DHT22;14442;50.196;8.096;2023-03-03T15:30:40;23.30;30.00
15983;DHT22;14442;50.196;8.096;2023-03-03T15:33:15;23.30;30.10
15983;DHT22;14442;50.196;8.096;2023-03-03T15:35:49;23.20;30.10
15983;DHT22;14442;50.196;8.096;2023-03-03T15:38:25;23.20;30.20
15983;DHT22;14442;50.196;8.096;2023-03-03T15:41:03;23.30;30.30
15983;DHT22;14442;50.196;8.096;2023-03-03T15:43:36;23.30;30.30
15983;DHT22;14442;50.196;8.096;2023-03-03T15:46:15;23.30;30.50
15983;DHT22;14442;50.196;8.096;2023-03-03T15:48:53;23.40;31.40
15983;DHT22;14442;50.196;8.096;2023-03-03T15:51:38;23.40;30.90
15983;DHT22;14442;50.196;8.096;2023-03-03T15:54:21;23.40;31.10
15983;DHT22;14442;50.196;8.096;2023-03-03T15:56:55;23.50;31.20
15983;DHT22;14442;50.196;8.096;2023-03-03T15:59:55;23.60;31.20
15983;DHT22;14442;50.196;8.096;2023-03-03T16:02:38;23.70;31.40
15983;DHT22;14442;50.196;8.096;2023-03-03T16:05:14;23.90;31.50
15983;DHT22;14442;50.196;8.096;2023-03-03T16:07:48;23.90;31.20